Burrwood, Louisiana
Current Conditions -  °F | °C
As of 5:09 AM on Saturday 20 Dec 2014 (Local Time) from KBVE Reporting Station
Overcast Overcast  
Wind Chill: 54°   Ceiling: 600
Heat Index: 54°   Visibility: 10mi
Dew Point: 53°   Wind: 12mph
Humidity: 97%   Direction: 20°NNE
Pressure: 30.04"   Gusts: 22mph
Location:  29.2037°N, 89.3875°W
Report Text: KBVE 201109Z AUTO 02010G19KT 360V070 10SM BKN006 OVC050 12/12 A3004 RMK AO2 RAE1058 P0000 T01220117
Loading
Personal Weather Stations






























Interactive Weather Map New forecast layout! Learn more

10-Day Weather Forecast

Advertisements
Track Severe Weather on mobile